createdAt,value
2022-09-13T00:03:04.014Z,15.18
2022-09-13T00:07:07.590Z,15.14
2022-09-13T00:11:17.399Z,15.11
2022-09-13T00:15:20.935Z,15.07
2022-09-13T00:19:25.725Z,15.02
2022-09-13T00:23:29.144Z,14.92
2022-09-13T00:27:34.263Z,14.82
2022-09-13T00:31:38.025Z,14.71
2022-09-13T00:35:42.413Z,14.57
2022-09-13T00:39:49.617Z,14.55
2022-09-13T00:43:55.346Z,14.50
2022-09-13T00:48:02.974Z,14.47
2022-09-13T00:52:11.414Z,14.45
2022-09-13T00:56:20.896Z,14.41
2022-09-13T01:00:23.995Z,14.41
2022-09-13T01:04:30.570Z,14.42
2022-09-13T01:08:38.717Z,14.45
2022-09-13T01:12:47.698Z,14.42
2022-09-13T01:16:51.737Z,14.40
2022-09-13T01:21:29.361Z,14.36
2022-09-13T01:26:14.043Z,14.31
2022-09-13T01:30:23.495Z,14.26
2022-09-13T01:34:36.180Z,14.21
2022-09-13T01:38:55.462Z,14.15
2022-09-13T01:43:14.561Z,14.10
2022-09-13T01:47:29.381Z,14.08
2022-09-13T01:51:38.705Z,14.06
2022-09-13T01:55:49.254Z,14.06
2022-09-13T01:59:56.157Z,14.05
2022-09-13T02:04:07.756Z,14.03
2022-09-13T02:08:17.186Z,14.01
2022-09-13T02:12:23.565Z,13.97
2022-09-13T02:16:32.806Z,13.94
2022-09-13T02:20:40.451Z,13.93
2022-09-13T02:24:48.018Z,13.91
2022-09-13T02:28:54.190Z,13.88
2022-09-13T02:33:02.648Z,13.85
2022-09-13T02:37:10.318Z,13.79
2022-09-13T02:41:21.011Z,13.71
2022-09-13T02:45:35.588Z,13.61
2022-09-13T02:49:51.726Z,13.52
2022-09-13T02:54:05.568Z,13.45
2022-09-13T02:58:15.565Z,13.38
2022-09-13T03:02:23.826Z,13.34
2022-09-13T03:06:28.952Z,13.28
2022-09-13T03:10:46.590Z,13.29
2022-09-13T03:14:58.651Z,13.29
2022-09-13T03:19:19.587Z,13.27
2022-09-13T03:23:39.663Z,13.26
2022-09-13T03:27:52.725Z,13.27
2022-09-13T03:32:07.446Z,13.27
2022-09-13T03:36:17.115Z,13.26
2022-09-13T03:40:27.309Z,13.26
2022-09-13T03:44:34.171Z,13.27
2022-09-13T03:48:41.123Z,13.29
2022-09-13T03:52:46.591Z,13.29
2022-09-13T03:57:07.947Z,13.29
2022-09-13T04:01:12.944Z,13.27
2022-09-13T04:05:16.654Z,13.26
2022-09-13T04:09:19.615Z,13.27
2022-09-13T04:13:23.522Z,13.26
2022-09-13T04:17:29.224Z,13.22
2022-09-13T04:21:32.455Z,13.15
2022-09-13T04:25:36.007Z,13.08
2022-09-13T04:29:39.254Z,13.04
2022-09-13T04:33:44.398Z,13.03
2022-09-13T04:37:48.573Z,13.00
2022-09-13T04:41:54.711Z,12.98
2022-09-13T04:46:02.835Z,13.02
2022-09-13T04:50:10.620Z,13.05
2022-09-13T04:54:15.996Z,13.09
2022-09-13T04:58:19.928Z,13.15
2022-09-13T05:02:23.529Z,13.17
2022-09-13T05:06:28.779Z,13.22
2022-09-13T05:10:32.310Z,13.23
2022-09-13T05:14:35.923Z,13.29
2022-09-13T05:18:45.152Z,13.35
2022-09-13T05:22:50.374Z,13.43
2022-09-13T05:26:53.828Z,13.51
2022-09-13T05:30:58.511Z,13.59
2022-09-13T05:35:02.016Z,13.71
2022-09-13T05:43:34.419Z,13.85
2022-09-13T05:47:49.991Z,13.91
2022-09-13T05:51:53.423Z,13.97
2022-09-13T05:55:58.101Z,14.03
2022-09-13T06:00:01.681Z,14.06
2022-09-13T06:04:05.354Z,14.11
2022-09-13T06:08:09.172Z,14.15
2022-09-13T06:12:13.627Z,14.24
2022-09-13T06:16:17.827Z,14.31
2022-09-13T06:20:21.428Z,14.44
2022-09-13T06:24:24.498Z,14.56
2022-09-13T06:28:29.254Z,14.72
2022-09-13T06:32:32.824Z,14.87
2022-09-13T06:36:35.808Z,15.04
2022-09-13T06:40:39.557Z,15.29
2022-09-13T06:44:46.493Z,15.57
2022-09-13T06:48:50.227Z,15.87
2022-09-13T06:52:54.143Z,16.19
2022-09-13T06:56:57.384Z,16.50
2022-09-13T07:01:15.734Z,16.78
2022-09-13T07:05:21.332Z,16.95
2022-09-13T07:09:25.207Z,17.15
2022-09-13T07:13:28.723Z,17.32
2022-09-13T07:17:33.583Z,17.56
2022-09-13T07:21:37.037Z,17.88
2022-09-13T07:25:40.512Z,18.31
2022-09-13T07:29:44.697Z,18.78
2022-09-13T07:33:50.309Z,19.25
2022-09-13T07:37:53.978Z,19.66
2022-09-13T07:41:57.064Z,20.03
2022-09-13T07:46:01.993Z,20.40
2022-09-13T07:50:08.263Z,20.84
2022-09-13T07:54:13.887Z,21.37
2022-09-13T07:58:16.954Z,21.99
2022-09-13T08:02:20.487Z,22.55
2022-09-13T08:06:26.340Z,22.96
2022-09-13T08:11:00.355Z,23.30
2022-09-13T08:20:37.375Z,23.59
2022-09-13T08:31:04.222Z,24.67
2022-09-13T08:36:12.520Z,24.98
2022-09-13T08:46:24.040Z,25.12
2022-09-13T08:56:34.991Z,25.93
2022-09-13T09:02:01.209Z,26.00
2022-09-13T09:06:02.694Z,26.42
2022-09-13T09:10:09.029Z,26.67
2022-09-13T09:14:19.095Z,26.93
2022-09-13T09:18:27.261Z,27.13
2022-09-13T09:22:36.534Z,27.34
2022-09-13T09:26:39.904Z,27.52
2022-09-13T09:30:50.668Z,27.74
2022-09-13T09:35:10.114Z,27.85
2022-09-13T09:39:16.569Z,27.93
2022-09-13T09:43:27.574Z,28.01
2022-09-13T09:47:41.741Z,28.11
2022-09-13T09:51:46.752Z,28.17
2022-09-13T09:55:53.944Z,28.33
2022-09-13T10:00:12.806Z,28.43
2022-09-13T10:04:23.398Z,28.67
2022-09-13T10:08:32.747Z,29.10
2022-09-13T10:12:38.649Z,29.41
2022-09-13T10:16:41.697Z,29.50
2022-09-13T10:21:02.283Z,29.88
2022-09-13T10:35:52.779Z,30.37
2022-09-13T10:40:33.266Z,30.63
2022-09-13T10:44:51.825Z,30.88
2022-09-13T10:49:31.318Z,30.96
2022-09-13T10:54:01.655Z,31.01
2022-09-13T10:58:19.217Z,30.63
2022-09-13T11:02:58.860Z,30.75
2022-09-13T11:07:25.468Z,30.71
2022-09-13T11:11:37.722Z,30.24
2022-09-13T11:16:11.759Z,30.44
2022-09-13T11:25:34.888Z,30.58
2022-09-13T11:30:11.530Z,31.22
2022-09-13T11:34:47.846Z,31.27
2022-09-13T11:39:11.434Z,31.17
2022-09-13T11:51:53.829Z,31.61
2022-09-13T11:56:02.694Z,31.66
2022-09-13T12:00:13.363Z,31.72
2022-09-13T12:04:25.617Z,31.77
2022-09-13T12:08:34.964Z,31.79
2022-09-13T12:12:39.526Z,31.80
2022-09-13T12:16:48.946Z,31.84
2022-09-13T12:20:55.285Z,31.88
2022-09-13T12:25:04.052Z,31.94
2022-09-13T12:29:16.686Z,32.06
2022-09-13T12:33:22.734Z,32.22
2022-09-13T12:37:48.124Z,32.40
2022-09-13T12:42:12.160Z,32.65
2022-09-13T12:46:53.196Z,32.98
2022-09-13T12:51:17.799Z,33.33
2022-09-13T12:55:49.677Z,33.54
2022-09-13T13:00:20.145Z,33.49
2022-09-13T13:04:32.619Z,33.27
2022-09-13T13:08:38.296Z,33.07
2022-09-13T13:12:42.899Z,32.89
2022-09-13T13:16:51.710Z,32.76
2022-09-13T13:21:26.931Z,32.69
2022-09-13T13:25:39.295Z,32.66
2022-09-13T13:29:42.886Z,32.63
2022-09-13T13:33:51.657Z,32.57
2022-09-13T13:38:16.197Z,32.42
2022-09-13T13:42:29.719Z,32.17
2022-09-13T13:46:36.442Z,31.85
2022-09-13T13:51:22.112Z,31.53
2022-09-13T13:55:43.629Z,31.12
2022-09-13T13:59:50.842Z,30.74
2022-09-13T14:04:27.113Z,30.35
2022-09-13T14:08:48.455Z,30.01
2022-09-13T14:17:42.192Z,29.63
2022-09-13T14:21:45.685Z,29.66
2022-09-13T14:25:55.981Z,29.72
2022-09-13T14:30:01.189Z,29.72
2022-09-13T14:34:06.069Z,29.65
2022-09-13T14:38:18.234Z,29.49
2022-09-13T14:42:21.834Z,29.23
2022-09-13T14:46:29.894Z,28.97
2022-09-13T14:50:39.062Z,28.71
2022-09-13T14:54:47.084Z,28.48
2022-09-13T14:58:54.634Z,28.31
2022-09-13T15:03:01.353Z,28.15
2022-09-13T15:07:20.388Z,28.02
2022-09-13T15:11:35.806Z,27.89
2022-09-13T15:15:41.353Z,27.79
2022-09-13T15:19:49.987Z,27.69
2022-09-13T15:23:55.013Z,27.61
2022-09-13T15:27:59.968Z,27.53
2022-09-13T15:32:04.157Z,27.49
2022-09-13T15:36:28.714Z,27.47
2022-09-13T15:40:43.973Z,27.41
2022-09-13T15:44:47.477Z,27.34
2022-09-13T15:48:54.369Z,27.25
2022-09-13T15:52:58.579Z,27.14
2022-09-13T15:57:04.125Z,27.01
2022-09-13T16:01:07.977Z,26.83
2022-09-13T16:05:12.132Z,26.67
2022-09-13T16:09:20.489Z,26.52
2022-09-13T16:13:24.966Z,26.36
2022-09-13T16:17:29.572Z,26.19
2022-09-13T16:21:33.227Z,26.06
2022-09-13T16:25:37.820Z,25.90
2022-09-13T16:29:43.628Z,25.80
2022-09-13T16:33:46.624Z,25.67
2022-09-13T16:37:52.334Z,25.57
2022-09-13T16:41:56.164Z,25.46
2022-09-13T16:46:01.116Z,25.34
2022-09-13T16:50:04.836Z,25.21
2022-09-13T16:54:08.436Z,25.08
2022-09-13T16:58:11.509Z,24.95
2022-09-13T17:02:16.802Z,24.80
2022-09-13T17:06:21.000Z,24.68
2022-09-13T17:10:24.792Z,24.54
2022-09-13T17:14:28.358Z,24.42
2022-09-13T17:18:34.045Z,24.31
2022-09-13T17:22:37.841Z,24.18
2022-09-13T17:26:41.460Z,24.08
2022-09-13T17:30:46.317Z,23.98
2022-09-13T17:34:50.852Z,23.88
2022-09-13T17:38:57.844Z,23.82
2022-09-13T17:43:01.255Z,23.71
2022-09-13T17:47:04.758Z,23.64
2022-09-13T17:51:12.416Z,23.58
2022-09-13T17:55:15.709Z,23.51
2022-09-13T17:59:21.159Z,23.42
2022-09-13T18:03:24.852Z,23.37
2022-09-13T18:07:29.195Z,23.33
2022-09-13T18:11:32.625Z,23.27
2022-09-13T18:15:36.261Z,23.24
2022-09-13T18:19:46.413Z,23.20
2022-09-13T18:23:53.390Z,23.20
2022-09-13T18:27:56.800Z,23.16
2022-09-13T18:32:00.672Z,23.14
2022-09-13T18:36:05.977Z,23.10
2022-09-13T18:40:14.506Z,23.08
2022-09-13T18:44:18.899Z,23.04
2022-09-13T18:48:22.521Z,23.00
2022-09-13T18:52:26.246Z,22.95
2022-09-13T18:56:32.894Z,22.92
2022-09-13T19:00:36.822Z,22.86
2022-09-13T19:04:41.051Z,22.81
2022-09-13T19:08:45.086Z,22.77
2022-09-13T19:12:50.259Z,22.73
2022-09-13T19:16:56.503Z,22.70
2022-09-13T19:21:04.046Z,22.68
2022-09-13T19:25:08.601Z,22.64
2022-09-13T19:29:15.497Z,22.63
2022-09-13T19:33:18.447Z,22.59
2022-09-13T19:37:21.909Z,22.55
2022-09-13T19:41:27.512Z,22.52
2022-09-13T19:45:32.606Z,22.49
2022-09-13T19:49:35.832Z,22.44
2022-09-13T19:53:56.382Z,22.41
2022-09-13T19:58:00.941Z,22.38
2022-09-13T20:02:06.701Z,22.35
2022-09-13T20:06:11.796Z,22.32
2022-09-13T20:10:15.500Z,22.28
2022-09-13T20:14:20.916Z,22.26
2022-09-13T20:18:25.873Z,22.20
2022-09-13T20:22:30.021Z,22.14
2022-09-13T20:26:36.472Z,22.09
2022-09-13T20:30:41.699Z,22.02
2022-09-13T20:34:46.684Z,21.96
2022-09-13T20:38:51.744Z,21.90
2022-09-13T20:42:55.322Z,21.86
2022-09-13T20:46:58.929Z,21.82
2022-09-13T20:51:06.445Z,21.81
2022-09-13T20:55:10.816Z,21.79
2022-09-13T20:59:14.264Z,21.79
2022-09-13T21:03:18.345Z,21.76
2022-09-13T21:07:40.490Z,21.74
2022-09-13T21:11:44.100Z,21.68
2022-09-13T21:15:47.288Z,21.65
2022-09-13T21:19:50.685Z,21.60
2022-09-13T21:23:56.814Z,21.59
2022-09-13T21:28:00.230Z,21.57
2022-09-13T21:32:04.656Z,21.53
2022-09-13T21:36:08.921Z,21.51
2022-09-13T21:40:13.991Z,21.50
2022-09-13T21:44:18.421Z,21.46
2022-09-13T21:48:22.246Z,21.47
2022-09-13T21:52:25.907Z,21.46
2022-09-13T21:56:32.697Z,21.46
2022-09-13T22:00:39.402Z,21.45
2022-09-13T22:04:44.087Z,21.43
2022-09-13T22:08:49.561Z,21.42
2022-09-13T22:12:54.600Z,21.39
2022-09-13T22:16:57.790Z,21.35
2022-09-13T22:21:06.319Z,21.29
2022-09-13T22:25:10.458Z,21.19
2022-09-13T22:29:16.292Z,21.08
2022-09-13T22:33:19.811Z,20.94
2022-09-13T22:37:23.421Z,20.81
2022-09-13T22:41:28.604Z,20.70
2022-09-13T22:45:33.753Z,20.61
2022-09-13T22:49:37.036Z,20.53
2022-09-13T22:53:43.103Z,20.45
2022-09-13T22:57:46.597Z,20.37
2022-09-13T23:01:51.174Z,20.33
2022-09-13T23:05:54.741Z,20.25
2022-09-13T23:09:58.430Z,20.19
2022-09-13T23:14:03.709Z,20.12
2022-09-13T23:18:10.217Z,20.05
2022-09-13T23:22:13.806Z,19.96
2022-09-13T23:26:22.962Z,19.89
2022-09-13T23:30:27.165Z,19.81
2022-09-13T23:34:32.043Z,19.76
2022-09-13T23:38:35.202Z,19.69
2022-09-13T23:42:38.589Z,19.64
2022-09-13T23:46:42.485Z,19.59
2022-09-13T23:50:47.267Z,19.55
2022-09-13T23:54:51.447Z,19.51
2022-09-13T23:58:54.559Z,19.49
